Time;durP1;ratioP1;P1;durP2;ratioP2;P2;SDS_P1;SDS_P2;PMS_P1;PMS_P2;Temp;Humidity;BMP_temperature;BMP_pressure;BME280_temperature;BME280_humidity;BME280_pressure;Samples;Min_cycle;Max_cycle;Signal;HPM_P1;HPM_P2
2023/05/26 00:01:36;;;;;;;12.10;7.25;;;;;;;15.39;56.96;97295.50;4867297;29;20057;-89
2023/05/26 00:04:27;;;;;;;8.95;6.72;;;;;;;15.29;57.28;97301.13;4868111;29;20064;-88
2023/05/26 00:07:03;;;;;;;8.85;6.53;;;;;;;15.21;57.45;97299.44;4868484;29;20140;-87
2023/05/26 00:09:39;;;;;;;9.38;5.90;;;;;;;15.20;58.28;97308.34;4867428;29;20235;-88
2023/05/26 00:12:22;;;;;;;10.15;6.43;;;;;;;15.21;57.52;97309.97;4866856;29;20068;-87
2023/05/26 00:15:04;;;;;;;10.25;7.13;;;;;;;15.16;57.67;97320.25;4867539;29;20061;-89
2023/05/26 00:17:47;;;;;;;11.82;7.75;;;;;;;15.12;57.37;97313.75;4867722;29;20053;-89
2023/05/26 00:20:31;;;;;;;8.93;5.53;;;;;;;15.11;58.58;97317.41;4867136;29;20540;-85
2023/05/26 00:23:10;;;;;;;8.15;6.60;;;;;;;15.13;57.60;97317.19;4870915;29;20477;-90
2023/05/26 00:25:45;;;;;;;9.27;6.38;;;;;;;15.09;57.83;97318.59;4870325;29;20054;-88
2023/05/26 00:28:19;;;;;;;9.35;7.03;;;;;;;15.02;57.83;97321.16;4871267;29;20049;-89
2023/05/26 00:30:56;;;;;;;8.13;6.40;;;;;;;14.93;57.83;97320.50;4871163;29;20125;-88
2023/05/26 00:33:32;;;;;;;9.02;7.35;;;;;;;14.87;57.93;97320.44;4874077;29;20068;-90
2023/05/26 00:36:11;;;;;;;8.80;6.82;;;;;;;14.82;58.34;97316.59;4871975;29;20545;-89
2023/05/26 00:38:43;;;;;;;8.77;6.00;;;;;;;14.86;59.97;97314.38;4873053;29;20274;-90
2023/05/26 00:44:11;;;;;;;10.00;7.35;;;;;;;14.92;58.12;97318.06;4871284;29;20061;-88
2023/05/26 00:46:48;;;;;;;9.07;6.25;;;;;;;14.94;59.91;97313.44;4872838;29;20498;-89
2023/05/26 00:49:21;;;;;;;7.80;6.80;;;;;;;14.90;58.22;97315.63;4872829;29;20050;-88
2023/05/26 00:52:03;;;;;;;9.20;6.78;;;;;;;14.82;57.90;97316.59;4872294;29;20140;-87
2023/05/26 00:54:38;;;;;;;9.63;6.45;;;;;;;14.73;58.09;97307.22;4872149;29;20483;-90
2023/05/26 00:57:22;;;;;;;9.75;7.13;;;;;;;14.66;58.15;97310.81;4872198;29;20049;-88
2023/05/26 00:59:56;;;;;;;9.18;6.65;;;;;;;14.59;58.41;97303.69;4871008;29;20053;-89
2023/05/26 01:02:35;;;;;;;10.25;6.95;;;;;;;14.56;58.16;97304.06;4870336;29;20506;-86
2023/05/26 01:05:18;;;;;;;10.07;7.25;;;;;;;14.51;58.58;97295.09;4870832;29;20053;-88
2023/05/26 01:07:53;;;;;;;10.75;7.07;;;;;;;14.46;58.50;97292.25;4870556;29;20113;-84
2023/05/26 01:10:34;;;;;;;10.18;6.85;;;;;;;14.43;58.73;97291.63;4869326;29;20057;-83
2023/05/26 01:13:14;;;;;;;9.10;7.43;;;;;;;14.42;58.68;97287.34;4869246;29;20057;-85
2023/05/26 01:16:01;;;;;;;8.98;7.25;;;;;;;14.40;58.90;97293.78;4869692;29;20061;-87
2023/05/26 01:18:45;;;;;;;11.93;6.82;;;;;;;14.41;58.67;97300.69;4868848;29;20069;-88
2023/05/26 01:21:27;;;;;;;10.63;7.10;;;;;;;14.42;58.61;97294.41;4866583;29;20442;-86
2023/05/26 01:24:14;;;;;;;9.32;7.20;;;;;;;14.40;58.33;97288.56;4867873;29;20066;-89
2023/05/26 01:27:22;;;;;;;10.00;7.18;;;;;;;14.35;58.61;97291.75;4868261;29;20419;-89
2023/05/26 01:30:06;;;;;;;12.73;7.95;;;;;;;14.33;57.98;97291.13;4868366;29;20060;-90
2023/05/26 01:32:47;;;;;;;9.05;7.20;;;;;;;14.27;58.27;97291.88;4866117;29;20140;-86
2023/05/26 01:35:16;;;;;;;9.57;7.28;;;;;;;14.25;58.08;97301.72;4867038;29;20057;-87
2023/05/26 01:37:45;;;;;;;7.90;6.18;;;;;;;14.27;60.58;97301.56;4866933;29;20502;-86
2023/05/26 01:40:24;;;;;;;9.07;7.35;;;;;;;14.25;58.75;97304.34;4866813;29;20050;-85
2023/05/26 01:43:04;;;;;;;10.80;7.20;;;;;;;14.18;58.61;97300.88;4866655;29;20140;-87
2023/05/26 01:45:45;;;;;;;10.75;7.28;;;;;;;14.15;59.03;97296.81;4867252;29;20057;-87
2023/05/26 01:51:08;;;;;;;10.82;7.13;;;;;;;14.15;60.05;97303.88;4864435;29;20054;-89
2023/05/26 01:53:54;;;;;;;10.65;7.47;;;;;;;14.11;59.08;97310.50;4866566;29;20069;-84
2023/05/26 01:56:32;;;;;;;13.83;8.73;;;;;;;14.05;59.00;97300.75;4867343;29;20530;-84
2023/05/26 01:59:07;;;;;;;15.05;8.10;;;;;;;13.97;59.21;97302.50;4866732;29;20118;-87
2023/05/26 02:01:43;;;;;;;12.15;6.93;;;;;;;13.88;59.29;97303.56;4864469;29;20057;-88
2023/05/26 02:04:22;;;;;;;12.05;7.63;;;;;;;13.82;59.25;97301.72;4865699;29;20053;-88
2023/05/26 02:07:05;;;;;;;11.13;7.43;;;;;;;13.77;59.44;97304.06;4865651;29;20136;-89
2023/05/26 02:09:40;;;;;;;9.68;7.10;;;;;;;13.78;59.85;97305.69;4865110;29;20113;-88
2023/05/26 02:12:15;;;;;;;13.27;8.32;;;;;;;13.79;59.56;97302.06;4865299;29;20510;-89
2023/05/26 02:14:59;;;;;;;12.48;7.85;;;;;;;13.79;59.46;97302.06;4865886;29;20057;-86
2023/05/26 02:17:47;;;;;;;10.57;7.85;;;;;;;13.77;59.85;97309.31;4866577;29;20113;-86
2023/05/26 02:20:22;;;;;;;15.52;7.90;;;;;;;13.78;60.65;97298.63;4865496;29;20075;-85
2023/05/26 02:22:55;;;;;;;8.48;6.95;;;;;;;13.86;59.83;97307.38;4865425;29;20569;-84
2023/05/26 02:25:28;;;;;;;12.18;8.43;;;;;;;13.86;59.48;97308.19;4865649;29;20129;-84
2023/05/26 02:28:09;;;;;;;9.57;7.07;;;;;;;13.90;60.47;97309.44;4865444;29;20137;-88
2023/05/26 02:36:15;;;;;;;16.48;7.93;;;;;;;13.76;59.13;97305.88;4864578;29;20460;-88
2023/05/26 02:38:50;;;;;;;11.25;7.95;;;;;;;13.72;60.06;97307.25;4865669;29;20064;-83
2023/05/26 02:41:26;;;;;;;9.60;7.90;;;;;;;13.71;59.74;97300.38;4864677;29;20425;-86
2023/05/26 02:44:02;;;;;;;11.30;8.38;;;;;;;13.68;59.69;97297.31;4864187;29;20053;-84
2023/05/26 02:46:35;;;;;;;;;;;;;;;13.67;59.40;97298.31;4867382;29;20114;-83
2023/05/26 02:49:12;;;;;;;;;;;;;;;13.68;60.35;97305.16;4867995;29;20365;-86
2023/05/26 02:51:47;;;;;;;8.68;7.38;;;;;;;13.69;59.92;97296.31;4867227;29;20309;-90
2023/05/26 02:54:21;;;;;;;13.13;8.93;;;;;;;13.67;59.22;97301.75;4865847;29;20053;-90
2023/05/26 02:56:50;;;;;;;13.45;8.23;;;;;;;13.62;59.89;97300.66;4865450;29;20057;-87
2023/05/26 02:59:17;;;;;;;10.27;8.10;;;;;;;13.64;59.62;97298.66;4866465;29;20053;-89
2023/05/26 03:01:45;;;;;;;12.25;7.82;;;;;;;13.57;59.72;97294.16;4866157;29;20111;-88
2023/05/26 03:04:14;;;;;;;12.35;8.23;;;;;;;13.48;59.93;97300.50;4866029;29;20148;-89
2023/05/26 03:06:42;;;;;;;10.32;8.50;;;;;;;13.42;59.98;97314.31;4865895;29;20586;-89
2023/05/26 03:09:10;;;;;;;11.73;8.75;;;;;;;13.35;60.11;97310.81;4865597;29;20127;-89
2023/05/26 03:11:37;;;;;;;10.73;8.18;;;;;;;13.30;60.35;97303.50;4864432;29;20105;-89
2023/05/26 03:14:05;;;;;;;14.18;8.23;;;;;;;13.29;60.75;97306.28;4864301;29;20105;-88
2023/05/26 03:16:33;;;;;;;10.73;8.23;;;;;;;13.32;60.88;97298.09;4863686;29;20349;-88
2023/05/26 03:19:01;;;;;;;12.23;9.10;;;;;;;13.32;60.60;97298.09;4863838;29;20092;-89
2023/05/26 03:21:32;;;;;;;9.65;7.03;;;;;;;13.33;61.83;97302.31;4863488;29;20101;-86
2023/05/26 03:24:16;;;;;;;11.68;8.63;;;;;;;13.32;60.89;97305.94;4864115;29;20049;-87
2023/05/26 03:26:44;;;;;;;9.68;7.30;;;;;;;13.34;61.96;97298.72;4863450;29;20129;-86
2023/05/26 03:29:19;;;;;;;14.27;8.52;;;;;;;13.35;60.74;97300.34;4864184;29;20498;-89
2023/05/26 03:31:57;;;;;;;11.52;8.07;;;;;;;13.30;61.05;97297.47;4863881;29;20073;-88
2023/05/26 03:34:29;;;;;;;11.40;8.30;;;;;;;13.26;60.61;97293.53;4864683;29;20053;-89
2023/05/26 03:37:06;;;;;;;11.95;8.13;;;;;;;13.23;60.99;97296.50;4864105;29;20054;-90
2023/05/26 03:42:29;;;;;;;15.95;9.10;;;;;;;13.04;61.27;97292.63;4861641;29;20128;-90
2023/05/26 03:45:17;;;;;;;17.13;9.68;;;;;;;12.94;61.71;97290.25;4864537;29;20081;-89
2023/05/26 03:47:55;;;;;;;13.85;8.55;;;;;;;12.87;61.86;97282.31;4864711;29;20507;-88
2023/05/26 03:50:34;;;;;;;11.57;9.23;;;;;;;12.83;61.90;97291.50;4864168;29;20054;-89
2023/05/26 03:53:13;;;;;;;14.65;8.45;;;;;;;12.75;62.05;97295.03;4863418;29;20165;-88
2023/05/26 03:55:53;;;;;;;16.15;9.60;;;;;;;12.70;62.14;97302.63;4863369;29;20058;-87
2023/05/26 03:58:34;;;;;;;13.55;8.35;;;;;;;12.63;62.19;97301.69;4863114;29;20063;-89
2023/05/26 04:01:09;;;;;;;13.25;9.23;;;;;;;12.61;62.39;97306.28;4862798;29;20077;-88
2023/05/26 04:03:43;;;;;;;12.80;9.55;;;;;;;12.60;62.57;97296.81;4863819;29;20118;-88
2023/05/26 04:06:22;;;;;;;12.38;9.10;;;;;;;12.60;62.73;97311.72;4862819;29;20566;-88
2023/05/26 04:09:03;;;;;;;12.52;9.15;;;;;;;12.56;62.77;97306.00;4863824;29;20088;-85
2023/05/26 04:11:37;;;;;;;17.63;9.80;;;;;;;12.54;62.75;97308.00;4868739;29;20081;-89
2023/05/26 04:14:14;;;;;;;15.02;9.02;;;;;;;12.57;62.83;97310.25;4863559;29;20057;-88
2023/05/26 04:16:56;;;;;;;12.43;8.60;;;;;;;12.58;63.01;97311.88;4863934;29;20104;-89
2023/05/26 04:19:28;;;;;;;14.20;9.32;;;;;;;12.60;62.86;97312.53;4864340;29;20080;-88
2023/05/26 04:22:05;;;;;;;12.02;8.45;;;;;;;12.65;63.90;97318.03;4858698;29;20467;-88
2023/05/26 04:24:38;;;;;;;14.23;9.05;;;;;;;12.69;63.24;97315.88;4867495;29;20069;-89
2023/05/26 04:27:09;;;;;;;13.40;9.32;;;;;;;12.67;62.91;97315.25;4865541;29;20060;-89
2023/05/26 04:29:40;;;;;;;14.25;9.27;;;;;;;12.58;63.04;97309.28;4870838;29;20061;-89
2023/05/26 04:32:12;;;;;;;16.00;9.23;;;;;;;12.51;63.43;97308.34;4866459;29;20053;-88
2023/05/26 04:34:50;;;;;;;13.00;9.45;;;;;;;12.51;63.93;97308.34;4863678;29;20064;-87
2023/05/26 04:37:24;;;;;;;15.85;9.30;;;;;;;12.54;63.54;97313.22;4865037;29;20551;-87
2023/05/26 04:40:00;;;;;;;19.73;10.02;;;;;;;12.51;63.79;97313.59;4864037;29;20114;-89
2023/05/26 04:42:38;;;;;;;15.52;10.23;;;;;;;12.51;63.65;97310.97;4863116;29;20053;-89
2023/05/26 04:45:08;;;;;;;13.25;8.82;;;;;;;12.49;63.80;97308.53;4864373;29;20053;-89
2023/05/26 04:47:43;;;;;;;17.38;10.23;;;;;;;12.49;63.98;97307.72;4866164;29;20125;-90
2023/05/26 04:50:16;;;;;;;19.73;10.13;;;;;;;12.48;63.70;97303.47;4887293;23;20050;-79
2023/05/26 04:52:43;;;;;;;15.32;9.30;;;;;;;12.46;63.98;97308.06;4870572;29;20082;-78
2023/05/26 04:55:13;;;;;;;15.27;9.95;;;;;;;12.43;64.09;97305.78;4860722;29;20085;-78
2023/05/26 04:57:40;;;;;;;13.73;9.40;;;;;;;12.43;64.13;97303.19;4859490;29;20053;-78
2023/05/26 05:00:10;;;;;;;15.52;10.32;;;;;;;12.46;64.10;97305.44;4859691;29;20065;-77
2023/05/26 05:02:37;;;;;;;12.65;9.45;;;;;;;12.48;63.92;97308.69;4857754;29;20056;-78
2023/05/26 05:05:06;;;;;;;19.77;10.20;;;;;;;12.51;64.10;97311.78;4856406;29;20045;-78
2023/05/26 05:07:33;;;;;;;14.50;9.55;;;;;;;12.58;64.25;97310.06;4860329;29;20057;-78
2023/05/26 05:10:01;;;;;;;19.02;10.18;;;;;;;12.60;63.77;97306.47;4862435;29;20113;-79
2023/05/26 05:12:30;;;;;;;16.00;9.80;;;;;;;12.63;64.08;97311.34;4862631;29;20098;-79
2023/05/26 05:14:57;;;;;;;17.63;10.45;;;;;;;12.65;63.79;97310.19;4861925;29;20057;-78
2023/05/26 05:17:26;;;;;;;19.92;10.15;;;;;;;12.66;64.13;97309.19;4862478;29;20053;-78
2023/05/26 05:19:53;;;;;;;17.75;10.55;;;;;;;12.69;63.73;97316.69;4859787;29;20531;-79
2023/05/26 05:22:40;;;;;;;15.90;9.70;;;;;;;12.76;63.49;97316.78;4862082;29;20050;-79
2023/05/26 05:25:09;;;;;;;17.33;11.30;;;;;;;12.82;63.65;97312.66;4862608;29;20117;-78
2023/05/26 05:27:38;;;;;;;17.27;10.20;;;;;;;12.88;63.69;97325.00;4862090;29;20113;-79
2023/05/26 05:30:07;;;;;;;18.60;10.07;;;;;;;12.91;63.50;97314.22;4864567;29;20475;-78
2023/05/26 05:32:34;;;;;;;18.05;10.63;;;;;;;12.92;63.59;97326.28;4843921;29;20093;-77
2023/05/26 05:35:02;;;;;;;18.52;10.45;;;;;;;12.95;63.43;97320.72;4844871;29;20064;-80
2023/05/26 05:37:30;;;;;;;16.67;9.77;;;;;;;12.98;63.57;97329.00;4846042;29;20125;-80
2023/05/26 05:39:57;;;;;;;15.50;9.85;;;;;;;13.04;63.41;97330.13;4854423;29;20119;-80
2023/05/26 05:42:25;;;;;;;17.20;10.25;;;;;;;13.10;63.46;97318.13;4878986;29;20060;-80
2023/05/26 05:44:54;;;;;;;14.93;10.43;;;;;;;13.14;63.31;97325.44;4873865;29;20118;-80
2023/05/26 05:47:22;;;;;;;18.70;10.77;;;;;;;13.17;63.48;97327.69;4851565;29;20050;-79
2023/05/26 05:49:49;;;;;;;20.42;10.50;;;;;;;13.20;63.26;97321.25;4861791;29;20054;-78
2023/05/26 05:52:17;;;;;;;20.50;10.30;;;;;;;13.22;63.07;97323.72;4860856;29;20509;-78
2023/05/26 05:54:45;;;;;;;16.02;9.77;;;;;;;13.28;63.19;97325.63;4863678;29;20105;-78
2023/05/26 05:57:12;;;;;;;14.38;9.88;;;;;;;13.33;63.02;97329.31;4862662;29;20053;-77
2023/05/26 05:59:40;;;;;;;16.52;10.00;;;;;;;13.39;62.95;97328.63;4861019;29;20110;-75
2023/05/26 06:02:09;;;;;;;14.55;10.45;;;;;;;13.45;63.16;97332.31;4860594;29;20498;-77
2023/05/26 06:04:36;;;;;;;17.25;10.30;;;;;;;13.53;63.41;97340.06;4857494;29;20053;-76
2023/05/26 06:07:04;;;;;;;17.52;11.00;;;;;;;13.62;62.97;97345.22;4858509;29;20061;-76
2023/05/26 06:09:33;;;;;;;14.45;10.45;;;;;;;13.68;62.71;97347.13;4860938;29;20115;-75
2023/05/26 06:12:01;;;;;;;14.18;9.60;;;;;;;13.75;62.91;97346.22;4859134;29;20085;-76
2023/05/26 06:14:29;;;;;;;16.83;10.00;;;;;;;13.83;61.96;97345.28;4860578;29;20045;-77
2023/05/26 06:16:56;;;;;;;10.00;8.10;;;;;;;13.91;61.97;97358.31;4857392;29;20049;-77
2023/05/26 06:19:26;;;;;;;12.60;8.05;;;;;;;13.98;61.34;97358.38;4848611;29;20106;-77
2023/05/26 06:21:53;;;;;;;16.38;9.27;;;;;;;14.04;61.36;97359.44;4854244;29;20053;-77
2023/05/26 06:24:21;;;;;;;17.90;8.32;;;;;;;14.11;61.86;97362.97;4860475;29;20082;-76
2023/05/26 06:26:48;;;;;;;13.77;8.63;;;;;;;14.18;61.58;97366.47;4859886;29;20049;-77
2023/05/26 06:29:16;;;;;;;14.48;8.02;;;;;;;14.26;61.43;97374.22;4857032;29;20073;-76
2023/05/26 06:31:44;;;;;;;11.98;7.80;;;;;;;14.33;61.35;97371.66;4859766;29;20053;-76
2023/05/26 06:34:12;;;;;;;13.35;7.32;;;;;;;14.40;61.33;97370.72;4843199;29;20132;-76
2023/05/26 06:36:41;;;;;;;14.77;8.40;;;;;;;14.47;60.97;97372.59;4859056;29;20050;-77
2023/05/26 06:39:08;;;;;;;14.40;7.78;;;;;;;14.51;61.06;97373.84;4860228;29;20092;-77
2023/05/26 06:41:36;;;;;;;13.63;8.63;;;;;;;14.55;60.64;97368.06;4859418;29;20084;-77
2023/05/26 06:44:03;;;;;;;11.75;8.35;;;;;;;14.59;60.82;97371.16;4860775;29;20053;-77
2023/05/26 06:46:31;;;;;;;18.00;8.07;;;;;;;14.64;60.70;97368.75;4860475;29;20069;-77
2023/05/26 06:48:59;;;;;;;14.70;7.57;;;;;;;14.71;60.44;97374.88;4861074;29;20053;-77
2023/05/26 06:51:26;;;;;;;15.10;8.10;;;;;;;14.78;60.27;97370.50;4859966;29;20101;-77
2023/05/26 06:53:55;;;;;;;14.20;7.90;;;;;;;14.87;60.39;97372.97;4860387;29;20464;-76
2023/05/26 06:56:23;;;;;;;10.30;7.53;;;;;;;14.95;60.56;97365.78;4859341;29;20053;-77
2023/05/26 06:58:50;;;;;;;16.00;8.75;;;;;;;15.02;59.82;97365.81;4860220;29;20057;-77
2023/05/26 07:01:18;;;;;;;13.45;8.35;;;;;;;15.10;60.56;97373.56;4858021;29;20086;-77
2023/05/26 07:03:46;;;;;;;14.30;8.75;;;;;;;15.20;61.03;97368.00;4858601;29;20049;-77
2023/05/26 07:06:13;;;;;;;11.98;7.80;;;;;;;15.28;60.47;97367.03;4859482;29;20050;-77
2023/05/26 07:08:41;;;;;;;12.40;8.10;;;;;;;15.37;59.70;97368.47;4859171;29;20053;-77
2023/05/26 07:11:11;;;;;;;11.75;7.05;;;;;;;15.45;60.48;97377.03;4859676;29;20074;-77
2023/05/26 07:13:38;;;;;;;13.52;8.07;;;;;;;15.53;59.82;97376.06;4860117;29;20045;-77
2023/05/26 07:16:07;;;;;;;11.52;7.95;;;;;;;15.61;59.15;97375.94;4852636;29;20140;-77
2023/05/26 07:18:36;;;;;;;12.63;8.32;;;;;;;15.67;58.73;97374.31;4859561;29;20063;-77
2023/05/26 07:21:03;;;;;;;11.93;8.35;;;;;;;15.74;58.20;97369.13;4860117;29;20106;-77
2023/05/26 07:23:31;;;;;;;14.07;8.35;;;;;;;15.80;58.06;97374.41;4860231;29;20075;-77
2023/05/26 07:25:58;;;;;;;12.88;8.07;;;;;;;15.86;57.40;97368.38;4859587;29;20049;-77
2023/05/26 07:28:27;;;;;;;12.48;8.10;;;;;;;15.93;57.00;97375.47;4859959;29;20061;-77
2023/05/26 07:30:55;;;;;;;10.88;7.32;;;;;;;15.99;57.56;97359.72;4859557;29;20502;-77
2023/05/26 07:33:23;;;;;;;11.18;7.90;;;;;;;16.10;57.15;97365.44;4860208;29;20057;-77
2023/05/26 07:35:50;;;;;;;12.75;7.63;;;;;;;16.21;56.80;97367.47;4853663;29;20057;-77
2023/05/26 07:38:18;;;;;;;14.20;8.95;;;;;;;16.28;56.57;97370.94;4859982;29;20057;-77
2023/05/26 07:40:46;;;;;;;15.80;8.23;;;;;;;16.34;57.18;97367.50;4851903;29;20077;-77
2023/05/26 07:43:13;;;;;;;13.25;8.35;;;;;;;16.42;56.88;97361.22;4844050;29;20116;-77
2023/05/26 07:45:42;;;;;;;15.02;8.07;;;;;;;16.51;57.04;97367.97;4856136;29;20106;-77
2023/05/26 07:48:10;;;;;;;15.00;8.50;;;;;;;16.59;57.07;97370.38;4841534;29;20062;-77
2023/05/26 07:50:38;;;;;;;10.75;8.07;;;;;;;16.67;56.58;97370.19;4841744;29;20499;-77
2023/05/26 07:53:05;;;;;;;11.70;8.70;;;;;;;16.75;56.30;97373.63;4851807;29;20510;-77
2023/05/26 07:55:33;;;;;;;11.13;8.10;;;;;;;16.82;56.08;97367.41;4859651;29;20088;-77
2023/05/26 07:58:00;;;;;;;13.68;8.05;;;;;;;16.91;55.97;97369.84;4860502;29;20053;-77
2023/05/26 08:00:28;;;;;;;14.35;7.63;;;;;;;16.99;56.20;97373.06;4859795;29;20209;-77
2023/05/26 08:02:57;;;;;;;11.38;7.47;;;;;;;17.11;55.83;97368.00;4858840;29;20545;-77
2023/05/26 08:05:26;;;;;;;12.07;7.63;;;;;;;17.25;55.94;97366.13;4849114;29;20075;-77
2023/05/26 08:07:54;;;;;;;12.75;8.63;;;;;;;17.35;55.41;97371.81;4859604;29;20087;-77
2023/05/26 08:10:22;;;;;;;15.35;8.57;;;;;;;17.41;55.09;97376.25;4859018;29;20114;-77
2023/05/26 08:12:52;;;;;;;12.30;8.02;;;;;;;17.50;55.45;97368.94;4856759;29;20067;-77
2023/05/26 08:15:21;;;;;;;17.55;7.57;;;;;;;17.59;55.33;97366.88;4858526;29;20098;-77
2023/05/26 08:17:49;;;;;;;15.63;9.00;;;;;;;17.65;54.67;97372.16;4859141;29;20594;-77
2023/05/26 08:20:18;;;;;;;14.15;8.88;;;;;;;17.74;54.17;97364.00;4859428;29;20080;-77
2023/05/26 08:22:46;;;;;;;13.43;8.40;;;;;;;17.82;54.40;97361.97;4858805;29;20432;-77
2023/05/26 08:25:14;;;;;;;12.73;8.10;;;;;;;17.92;54.50;97367.59;4857753;29;20133;-76
2023/05/26 08:27:41;;;;;;;16.23;9.68;;;;;;;18.01;54.25;97365.53;4857970;29;20128;-77
2023/05/26 08:30:09;;;;;;;11.23;8.38;;;;;;;18.10;53.78;97368.75;4853402;29;20073;-76
2023/05/26 08:32:37;;;;;;;17.08;8.52;;;;;;;18.17;53.71;97363.44;4858394;29;20502;-76
2023/05/26 08:35:05;;;;;;;13.48;7.80;;;;;;;18.25;53.57;97371.13;4858926;29;20629;-77
2023/05/26 08:37:34;;;;;;;13.82;8.18;;;;;;;18.36;53.39;97367.00;4858616;29;20191;-77
2023/05/26 08:40:04;;;;;;;12.07;7.45;;;;;;;18.44;52.73;97364.91;4858858;29;20069;-74
2023/05/26 08:42:36;;;;;;;17.83;8.52;;;;;;;18.52;52.77;97372.59;4860059;29;20506;-74
2023/05/26 08:45:04;;;;;;;;;;;;;;;18.60;52.54;97360.13;4862210;29;20088;-74
2023/05/26 08:47:35;;;;;;;11.90;7.15;;;;;;;18.65;51.69;97365.56;4845048;29;19932;-77
2023/05/26 08:50:04;;;;;;;12.13;7.90;;;;;;;18.72;52.43;97366.34;4844633;29;20426;-75
2023/05/26 08:52:34;;;;;;;15.07;7.40;;;;;;;18.85;52.36;97361.00;4859041;29;20052;-75
2023/05/26 08:55:02;;;;;;;14.70;7.97;;;;;;;18.94;51.53;97364.97;4862151;29;20057;-75
2023/05/26 08:57:30;;;;;;;12.40;8.35;;;;;;;19.01;51.38;97369.41;4862256;29;20061;-75
2023/05/26 08:59:58;;;;;;;10.50;7.88;;;;;;;19.07;50.97;97368.56;4860692;29;20053;-76
2023/05/26 09:02:27;;;;;;;11.60;7.90;;;;;;;19.13;50.76;97362.38;4854065;29;20105;-75
2023/05/26 09:04:55;;;;;;;11.90;6.57;;;;;;;19.22;50.43;97361.09;4861515;29;20124;-75
2023/05/26 09:07:22;;;;;;;10.07;7.07;;;;;;;19.34;50.40;97363.81;4861928;29;20065;-75
2023/05/26 09:10:02;;;;;;;13.30;7.78;;;;;;;19.44;50.09;97368.59;4860701;29;20137;-74
2023/05/26 09:12:35;;;;;;;13.05;7.53;;;;;;;19.52;50.06;97370.94;4861552;29;20074;-75
2023/05/26 09:15:04;;;;;;;11.25;7.32;;;;;;;19.60;49.02;97373.31;4861409;29;20569;-74
2023/05/26 09:17:34;;;;;;;11.88;8.25;;;;;;;19.65;48.32;97373.44;4861177;29;20079;-75
2023/05/26 09:20:02;;;;;;;16.30;6.70;;;;;;;19.70;48.46;97370.16;4861967;29;20080;-74
2023/05/26 09:22:33;;;;;;;11.05;7.13;;;;;;;19.78;48.06;97379.66;4861737;29;20068;-75
2023/05/26 09:25:02;;;;;;;11.50;5.97;;;;;;;19.84;48.16;97374.28;4861586;29;20760;-75
2023/05/26 09:27:29;;;;;;;9.57;6.65;;;;;;;19.95;47.85;97370.09;4861253;29;20105;-75
2023/05/26 09:30:00;;;;;;;7.88;6.43;;;;;;;20.03;46.97;97371.59;4862103;29;20578;-75
2023/05/26 09:32:29;;;;;;;10.35;6.30;;;;;;;20.12;47.41;97371.09;4859870;29;20051;-74
2023/05/26 09:34:58;;;;;;;9.40;6.35;;;;;;;20.23;47.22;97376.69;4861170;29;20105;-75
2023/05/26 09:37:28;;;;;;;11.63;7.20;;;;;;;20.32;46.64;97368.19;4861356;29;20057;-75
2023/05/26 09:40:06;;;;;;;11.35;6.65;;;;;;;20.39;46.94;97357.47;4862112;29;20570;-75
2023/05/26 09:42:37;;;;;;;9.82;6.55;;;;;;;20.51;47.89;97357.50;4861987;29;20049;-74
2023/05/26 09:45:04;;;;;;;11.73;7.05;;;;;;;20.62;46.24;97359.44;4861836;29;20553;-75
2023/05/26 09:47:34;;;;;;;8.63;6.05;;;;;;;20.67;47.37;97361.41;4861478;29;20090;-75
2023/05/26 09:50:06;;;;;;;9.35;6.90;;;;;;;20.79;46.34;97359.56;4862012;29;20050;-75
2023/05/26 09:52:34;;;;;;;9.88;6.68;;;;;;;20.89;47.04;97362.47;4860479;29;20156;-75
2023/05/26 09:55:02;;;;;;;9.23;7.13;;;;;;;20.97;46.13;97366.63;4861515;29;20128;-75
2023/05/26 09:57:31;;;;;;;12.30;7.03;;;;;;;21.05;47.13;97362.81;4861462;29;20110;-75
2023/05/26 10:00:06;;;;;;;12.25;7.40;;;;;;;21.15;46.29;97363.88;4860881;29;20509;-75
2023/05/26 10:02:34;;;;;;;9.02;6.35;;;;;;;21.22;45.45;97361.09;4858590;29;20064;-77
2023/05/26 10:05:03;;;;;;;13.32;7.18;;;;;;;21.25;44.96;97362.47;4859730;29;20053;-76
2023/05/26 10:07:31;;;;;;;10.93;6.60;;;;;;;21.29;45.41;97359.13;4861310;29;20095;-76
2023/05/26 10:10:00;;;;;;;12.85;6.60;;;;;;;21.33;45.14;97360.28;4861111;29;20127;-76
2023/05/26 10:12:30;;;;;;;7.72;6.00;;;;;;;21.43;44.79;97364.22;4858199;29;20522;-76
2023/05/26 10:15:00;;;;;;;7.60;5.20;;;;;;;21.49;44.34;97360.66;4861697;29;20073;-76
2023/05/26 10:17:28;;;;;;;6.50;5.07;;;;;;;21.54;44.52;97358.13;4864456;29;20054;-77
2023/05/26 10:19:57;;;;;;;9.25;5.22;;;;;;;21.59;43.64;97355.56;4862154;29;20046;-78
2023/05/26 10:22:28;;;;;;;10.68;5.47;;;;;;;21.66;43.42;97358.09;4860690;29;20053;-79
2023/05/26 10:25:01;;;;;;;10.40;6.05;;;;;;;21.67;44.07;97355.19;4862127;29;20088;-78
2023/05/26 10:27:34;;;;;;;8.77;5.50;;;;;;;21.70;43.79;97354.72;4860488;29;20566;-77
2023/05/26 10:30:08;;;;;;;11.40;5.68;;;;;;;21.75;43.62;97352.16;4861864;29;20058;-85
2023/05/26 10:32:47;;;;;;;7.30;5.40;;;;;;;21.81;43.69;97345.91;4861895;29;20113;-77
2023/05/26 10:35:22;;;;;;;7.10;5.38;;;;;;;21.91;43.69;97349.81;4860317;29;20161;-77
2023/05/26 10:37:51;;;;;;;11.30;6.13;;;;;;;21.95;42.99;97357.09;4861174;29;20060;-77
2023/05/26 10:40:28;;;;;;;12.30;5.90;;;;;;;22.00;43.29;97353.72;4860827;29;20098;-77
2023/05/26 10:42:59;;;;;;;8.15;5.50;;;;;;;22.05;43.21;97345.03;4859642;29;20061;-77
2023/05/26 10:45:33;;;;;;;9.68;5.60;;;;;;;22.13;42.67;97348.13;4861458;29;20197;-77
2023/05/26 10:48:07;;;;;;;9.00;5.80;;;;;;;22.23;42.02;97346.72;4861695;29;20554;-77
2023/05/26 10:51:04;;;;;;;7.00;4.80;;;;;;;22.26;41.73;97333.78;4860782;29;20061;-77
2023/05/26 16:56:31;;;;;;;7.50;4.80;;;;;;;22.83;36.85;97239.78;4846688;29;20103;-77
2023/05/26 16:58:58;;;;;;;7.10;4.88;;;;;;;22.81;37.35;97244.53;4843366;29;20058;-77
2023/05/26 17:01:26;;;;;;;7.07;4.80;;;;;;;22.80;37.18;97237.59;4841049;29;20082;-77
2023/05/26 17:03:53;;;;;;;7.25;5.40;;;;;;;22.79;36.98;97231.47;4841948;29;20768;-77
2023/05/26 17:06:21;;;;;;;5.70;4.35;;;;;;;22.75;37.34;97234.88;4843755;29;20126;-77
2023/05/26 17:08:49;;;;;;;7.90;5.10;;;;;;;22.74;37.08;97238.56;4846445;29;20082;-78
2023/05/26 17:11:16;;;;;;;8.63;4.95;;;;;;;22.73;36.95;97239.63;4844610;29;20566;-77
2023/05/26 17:13:45;;;;;;;7.32;5.25;;;;;;;22.72;37.05;97240.66;4844460;29;20080;-77
2023/05/26 17:16:13;;;;;;;8.48;5.13;;;;;;;22.70;37.08;97234.81;4843909;29;20079;-77
2023/05/26 17:18:40;;;;;;;8.52;5.18;;;;;;;22.70;37.27;97237.47;4843168;29;20601;-77
2023/05/26 17:21:08;;;;;;;7.60;5.32;;;;;;;22.66;37.57;97231.00;4842850;29;20411;-77
2023/05/26 17:23:37;;;;;;;7.75;5.68;;;;;;;22.63;37.60;97232.31;4843754;29;20081;-77
2023/05/26 17:26:05;;;;;;;8.30;4.93;;;;;;;22.60;37.60;97227.47;4844529;29;20061;-78
2023/05/26 17:28:35;;;;;;;5.93;5.00;;;;;;;22.58;37.75;97232.22;4846179;29;20057;-78
2023/05/26 17:31:05;;;;;;;5.70;4.75;;;;;;;22.56;37.56;97232.44;4845620;29;20054;-78
2023/05/26 17:33:32;;;;;;;9.00;5.40;;;;;;;22.54;37.36;97228.44;4834464;29;20130;-77
2023/05/26 17:36:00;;;;;;;8.50;4.97;;;;;;;22.52;37.50;97239.31;4843874;29;20499;-77
2023/05/26 17:38:31;;;;;;;6.45;5.35;;;;;;;22.51;37.38;97232.38;4843999;29;20054;-77
2023/05/26 17:40:58;;;;;;;7.05;4.97;;;;;;;22.50;37.79;97240.59;4843602;29;20049;-77
2023/05/26 17:43:26;;;;;;;6.03;5.07;;;;;;;22.47;37.52;97247.19;4843380;29;20050;-76
2023/05/26 17:45:54;;;;;;;8.38;4.88;;;;;;;22.44;37.83;97239.72;4843535;29;20530;-76
2023/05/26 17:48:23;;;;;;;6.50;4.90;;;;;;;22.41;37.44;97246.34;4843602;29;20140;-77
2023/05/26 17:50:50;;;;;;;7.25;5.13;;;;;;;22.39;37.72;97240.44;4843232;29;20083;-77
2023/05/26 17:53:18;;;;;;;6.60;4.93;;;;;;;22.36;37.87;97245.44;4843448;29;20054;-77
2023/05/26 17:55:45;;;;;;;6.85;5.13;;;;;;;22.30;37.84;97257.84;4843031;29;20149;-76
2023/05/26 17:58:13;;;;;;;7.22;5.38;;;;;;;22.28;37.60;97259.13;4843612;29;20054;-76
2023/05/26 18:00:42;;;;;;;8.23;5.18;;;;;;;22.25;37.81;97259.59;4843565;29;20065;-76
2023/05/26 18:03:10;;;;;;;8.27;5.28;;;;;;;22.22;38.07;97258.25;4843366;29;20089;-76
2023/05/26 18:05:39;;;;;;;9.88;5.10;;;;;;;22.20;38.43;97258.44;4843269;29;20526;-77